createdAt,value
2018-04-13T00:01:35.008Z,20.27
2018-04-13T00:04:03.925Z,15.90
2018-04-13T00:06:33.672Z,13.10
2018-04-13T00:09:03.496Z,15.50
2018-04-13T00:11:32.376Z,14.20
2018-04-13T00:14:02.025Z,12.93
2018-04-13T00:16:31.834Z,12.47
2018-04-13T00:19:00.717Z,11.20
2018-04-13T00:21:29.614Z,11.37
2018-04-13T00:23:58.487Z,13.03
2018-04-13T00:26:27.400Z,13.57
2018-04-13T00:28:56.353Z,12.73
2018-04-13T00:31:26.949Z,14.00
2018-04-13T00:33:57.412Z,16.33
2018-04-13T00:36:27.068Z,17.83
2018-04-13T00:38:56.066Z,19.80
2018-04-13T00:41:26.504Z,20.63
2018-04-13T00:43:55.392Z,19.00
2018-04-13T00:46:24.291Z,15.13
2018-04-13T00:48:53.193Z,12.50
2018-04-13T00:51:22.952Z,7.97
2018-04-13T00:53:51.910Z,9.40
2018-04-13T00:56:21.561Z,9.33
2018-04-13T00:58:50.424Z,9.30
2018-04-13T01:01:19.318Z,7.37
2018-04-13T01:03:48.217Z,7.80
2018-04-13T01:06:17.078Z,7.30
2018-04-13T01:08:46.773Z,6.90
2018-04-13T01:11:15.666Z,6.40
2018-04-13T01:13:44.529Z,5.87
2018-04-13T01:16:13.838Z,6.40
2018-04-13T01:18:42.748Z,6.10
2018-04-13T01:21:12.386Z,6.07
2018-04-13T01:23:41.256Z,6.07
2018-04-13T01:26:10.947Z,5.57
2018-04-13T01:28:39.853Z,5.77
2018-04-13T01:31:08.804Z,4.60
2018-04-13T01:33:37.684Z,4.63
2018-04-13T01:36:06.565Z,5.43
2018-04-13T01:38:35.733Z,4.03
2018-04-13T01:41:04.621Z,4.50
2018-04-13T01:43:34.249Z,4.23
2018-04-13T01:46:03.128Z,3.83
2018-04-13T01:48:32.040Z,4.17
2018-04-13T01:51:00.907Z,3.07
2018-04-13T01:53:29.821Z,4.33
2018-04-13T01:55:58.788Z,3.67
2018-04-13T01:58:27.633Z,3.83
2018-04-13T02:00:56.531Z,3.43
2018-04-13T02:03:25.419Z,4.03
2018-04-13T02:05:54.295Z,3.50
2018-04-13T02:08:23.286Z,4.30
2018-04-13T02:10:52.177Z,4.50
2018-04-13T02:13:21.044Z,4.30
2018-04-13T02:15:49.940Z,4.20
2018-04-13T02:18:18.883Z,5.20
2018-04-13T02:20:47.743Z,6.63
2018-04-13T02:23:16.706Z,6.60
2018-04-13T02:25:45.648Z,6.10
2018-04-13T02:28:14.799Z,4.73
2018-04-13T02:30:43.698Z,4.43
2018-04-13T02:33:12.578Z,4.40
2018-04-13T02:35:41.539Z,4.90
2018-04-13T02:38:11.192Z,5.40
2018-04-13T02:40:40.155Z,4.87
2018-04-13T02:43:09.049Z,4.40
2018-04-13T02:45:37.958Z,4.73
2018-04-13T02:48:06.952Z,4.60
2018-04-13T02:50:35.809Z,4.53
2018-04-13T02:53:04.696Z,4.07
2018-04-13T02:55:33.659Z,4.30
2018-04-13T02:58:02.517Z,4.30
2018-04-13T03:00:31.400Z,5.10
2018-04-13T03:03:00.316Z,4.37
2018-04-13T03:05:29.820Z,4.80
2018-04-13T03:07:58.732Z,5.20
2018-04-13T03:10:27.633Z,5.43
2018-04-13T03:12:56.494Z,9.10
2018-04-13T03:15:25.386Z,5.50
2018-04-13T03:17:54.350Z,5.87
2018-04-13T03:20:23.268Z,8.60
2018-04-13T03:22:52.162Z,4.97
2018-04-13T03:25:21.192Z,5.80
2018-04-13T03:27:50.160Z,5.90
2018-04-13T03:30:19.044Z,6.03
2018-04-13T03:32:47.944Z,6.17
2018-04-13T03:35:16.836Z,5.13
2018-04-13T03:37:45.703Z,6.40
2018-04-13T03:40:14.718Z,6.17
2018-04-13T03:42:43.781Z,5.67
2018-04-13T03:45:12.679Z,6.10
2018-04-13T03:47:41.590Z,6.70
2018-04-13T03:50:10.471Z,6.97
2018-04-13T03:52:39.395Z,6.90
2018-04-13T03:55:09.106Z,7.83
2018-04-13T03:57:38.771Z,8.27
2018-04-13T04:00:07.659Z,7.90
2018-04-13T04:02:36.559Z,8.13
2018-04-13T04:05:05.457Z,7.47
2018-04-13T04:07:34.346Z,8.30
2018-04-13T04:10:03.265Z,7.80
2018-04-13T04:12:32.223Z,8.77
2018-04-13T04:15:01.080Z,8.00
2018-04-13T04:17:30.064Z,8.73
2018-04-13T04:20:16.528Z,8.40
2018-04-13T04:23:03.199Z,9.77
2018-04-13T04:28:43.166Z,9.17
2018-04-13T04:31:12.139Z,10.10
2018-04-13T04:33:41.298Z,9.47
2018-04-13T04:36:10.963Z,9.30
2018-04-13T04:38:39.820Z,9.83
2018-04-13T04:41:08.844Z,15.30
2018-04-13T04:43:37.802Z,9.90
2018-04-13T04:46:06.696Z,10.63
2018-04-13T04:48:35.630Z,10.83
2018-04-13T04:51:04.523Z,10.53
2018-04-13T04:53:33.503Z,11.10
2018-04-13T04:56:02.441Z,10.87
2018-04-13T04:58:31.427Z,13.37
2018-04-13T05:01:01.109Z,13.10
2018-04-13T05:03:30.075Z,14.07
2018-04-13T05:05:58.988Z,14.90
2018-04-13T05:08:28.018Z,13.83
2018-04-13T05:10:56.894Z,15.00
2018-04-13T05:13:25.800Z,17.33
2018-04-13T05:15:55.492Z,15.40
2018-04-13T05:18:24.431Z,20.00
2018-04-13T05:20:53.324Z,16.23
2018-04-13T05:23:23.068Z,16.13
2018-04-13T05:25:52.057Z,13.73
2018-04-13T05:28:20.996Z,13.33
2018-04-13T05:30:49.913Z,13.53
2018-04-13T05:33:18.807Z,12.47
2018-04-13T05:35:47.713Z,14.00
2018-04-13T05:38:16.632Z,12.30
2018-04-13T05:40:45.528Z,12.47
2018-04-13T05:43:14.419Z,11.17
2018-04-13T05:45:43.309Z,12.63
2018-04-13T05:48:12.196Z,11.60
2018-04-13T05:50:41.077Z,12.33
2018-04-13T05:53:09.963Z,11.13
2018-04-13T05:55:38.868Z,12.33
2018-04-13T05:58:07.804Z,12.27
2018-04-13T06:00:36.716Z,12.03
2018-04-13T06:03:05.569Z,12.07
2018-04-13T06:05:35.237Z,12.00
2018-04-13T06:08:04.128Z,12.03
2018-04-13T06:10:33.011Z,12.77
2018-04-13T06:13:02.042Z,12.97
2018-04-13T06:15:30.921Z,13.63
2018-04-13T06:18:00.603Z,10.90
2018-04-13T06:20:29.520Z,12.43
2018-04-13T06:22:58.441Z,12.27
2018-04-13T06:25:27.427Z,13.13
2018-04-13T06:27:56.413Z,12.70
2018-04-13T06:30:25.330Z,12.37
2018-04-13T06:32:54.272Z,20.47
2018-04-13T06:35:23.171Z,13.20
2018-04-13T06:37:52.072Z,13.33
2018-04-13T06:40:21.720Z,13.27
2018-04-13T06:42:50.674Z,12.27
2018-04-13T06:45:20.376Z,15.43
2018-04-13T06:47:50.060Z,15.40
2018-04-13T06:50:18.965Z,15.77
2018-04-13T06:52:47.855Z,11.33
2018-04-13T06:55:16.732Z,11.23
2018-04-13T06:57:45.615Z,10.60
2018-04-13T07:00:14.531Z,11.60
2018-04-13T07:02:43.487Z,15.23
2018-04-13T07:05:12.328Z,14.10
2018-04-13T07:07:42.007Z,13.00
2018-04-13T07:10:10.890Z,27.57
2018-04-13T07:12:39.789Z,17.40
2018-04-13T07:15:08.970Z,17.50
2018-04-13T07:17:38.377Z,16.03
2018-04-13T07:20:07.312Z,16.53
2018-04-13T07:22:36.259Z,19.17
2018-04-13T07:25:05.228Z,14.17
2018-04-13T07:27:34.105Z,12.37
2018-04-13T07:30:03.113Z,13.27
2018-04-13T07:32:32.037Z,14.63
2018-04-13T07:35:00.922Z,11.43
2018-04-13T07:37:30.090Z,15.03
2018-04-13T07:39:59.029Z,28.47
2018-04-13T07:42:28.224Z,16.87
2018-04-13T07:44:56.863Z,18.23
2018-04-13T07:47:25.714Z,14.63
2018-04-13T07:49:55.484Z,11.90
2018-04-13T07:52:25.173Z,13.53
2018-04-13T07:54:54.108Z,17.90
2018-04-13T07:57:23.153Z,14.77
2018-04-13T07:59:52.501Z,12.73
2018-04-13T08:02:21.377Z,13.33
2018-04-13T08:04:50.300Z,14.97
2018-04-13T08:07:19.966Z,20.27
2018-04-13T08:09:48.998Z,14.53
2018-04-13T08:12:17.774Z,12.57
2018-04-13T08:14:46.712Z,12.60
2018-04-13T08:17:15.619Z,14.23
2018-04-13T08:19:44.505Z,17.67
2018-04-13T08:22:13.423Z,11.83
2018-04-13T08:24:42.341Z,10.60
2018-04-13T08:27:12.017Z,9.20
2018-04-13T08:29:41.022Z,8.43
2018-04-13T08:32:09.883Z,7.43
2018-04-13T08:34:38.808Z,7.33
2018-04-13T08:37:07.767Z,7.13
2018-04-13T08:39:36.727Z,6.97
2018-04-13T08:42:06.432Z,7.07
2018-04-13T08:44:36.203Z,7.60
2018-04-13T08:47:05.151Z,6.83
2018-04-13T08:49:34.009Z,7.30
2018-04-13T08:52:03.801Z,9.93
2018-04-13T08:54:32.715Z,7.33
2018-04-13T08:57:02.407Z,6.73
2018-04-13T08:59:32.009Z,7.30
2018-04-13T09:02:00.915Z,7.67
2018-04-13T09:04:29.801Z,4.33
2018-04-13T09:06:58.686Z,3.83
2018-04-13T09:09:28.053Z,3.33
2018-04-13T09:11:56.953Z,2.37
2018-04-13T09:14:25.970Z,3.73
2018-04-13T09:16:54.863Z,7.03
2018-04-13T09:19:23.737Z,5.40
2018-04-13T09:21:52.637Z,2.50
2018-04-13T09:24:21.544Z,2.40
2018-04-13T09:26:51.165Z,2.47
2018-04-13T09:29:20.800Z,2.70
2018-04-13T09:31:49.644Z,2.27
2018-04-13T09:34:19.065Z,2.60
2018-04-13T09:36:48.760Z,4.30
2018-04-13T09:39:18.422Z,5.40
2018-04-13T09:41:47.308Z,3.83
2018-04-13T09:44:16.237Z,3.40
2018-04-13T09:46:45.117Z,3.83
2018-04-13T09:49:14.028Z,3.20
2018-04-13T09:51:42.919Z,4.90
2018-04-13T09:54:11.798Z,3.43
2018-04-13T09:56:40.747Z,2.83
2018-04-13T09:59:09.678Z,3.00
2018-04-13T10:01:40.432Z,2.60
2018-04-13T10:04:13.194Z,2.50
2018-04-13T10:06:42.080Z,2.70
2018-04-13T10:09:10.939Z,3.73
2018-04-13T10:11:39.859Z,5.10
2018-04-13T10:14:08.732Z,4.20
2018-04-13T10:16:37.623Z,3.53
2018-04-13T10:19:06.963Z,2.93
2018-04-13T10:21:36.615Z,3.13
2018-04-13T10:24:05.571Z,3.10
2018-04-13T10:26:35.245Z,2.90
2018-04-13T10:29:04.288Z,3.10
2018-04-13T10:31:33.133Z,3.20
2018-04-13T10:34:02.035Z,2.37
2018-04-13T10:36:31.653Z,2.70
2018-04-13T10:39:00.541Z,2.50
2018-04-13T10:41:29.466Z,2.50
2018-04-13T10:43:58.373Z,2.50
2018-04-13T10:46:27.280Z,2.23
2018-04-13T10:48:56.201Z,2.20
2018-04-13T10:51:25.096Z,2.27
2018-04-13T10:53:53.965Z,2.00
2018-04-13T10:56:22.874Z,1.77
2018-04-13T10:58:51.748Z,1.73
2018-04-13T11:01:20.627Z,1.73
2018-04-13T11:03:49.545Z,1.80
2018-04-13T11:06:18.788Z,2.10
2018-04-13T11:08:47.872Z,2.10
2018-04-13T11:11:16.884Z,1.97
2018-04-13T11:13:45.759Z,2.03
2018-04-13T11:16:14.753Z,1.93
2018-04-13T11:18:43.701Z,1.93
2018-04-13T11:21:12.614Z,1.57
2018-04-13T11:23:42.279Z,1.80
2018-04-13T11:26:11.209Z,1.10
2018-04-13T11:28:40.900Z,1.53
2018-04-13T11:31:09.768Z,1.50
2018-04-13T11:33:38.704Z,1.80
2018-04-13T11:36:08.356Z,1.10
2018-04-13T11:38:37.240Z,1.47
2018-04-13T11:41:06.159Z,1.37
2018-04-13T11:43:35.037Z,1.40
2018-04-13T11:46:03.970Z,1.50
2018-04-13T11:48:32.870Z,1.30
2018-04-13T11:51:02.531Z,1.50
2018-04-13T11:53:31.433Z,1.60
2018-04-13T11:56:00.333Z,1.40
2018-04-13T11:58:29.243Z,1.45
2018-04-13T12:00:58.901Z,1.47
2018-04-13T12:03:27.768Z,1.77
2018-04-13T12:05:56.637Z,1.50
2018-04-13T12:08:26.340Z,3.10
2018-04-13T12:10:56.056Z,1.47
2018-04-13T12:13:25.741Z,1.53
2018-04-13T12:15:54.697Z,1.77
2018-04-13T12:18:23.676Z,1.30
2018-04-13T12:20:52.592Z,1.67
2018-04-13T12:23:22.234Z,1.80
2018-04-13T12:25:51.179Z,1.80
2018-04-13T12:28:20.113Z,1.77
2018-04-13T12:30:48.980Z,1.53
2018-04-13T12:33:17.892Z,1.57
2018-04-13T12:35:46.803Z,1.53
2018-04-13T12:38:16.540Z,1.67
2018-04-13T12:40:45.413Z,2.10
2018-04-13T12:43:14.288Z,1.20
2018-04-13T12:45:43.167Z,1.90
2018-04-13T12:48:12.124Z,1.53
2018-04-13T12:50:41.078Z,1.40
2018-04-13T12:53:10.029Z,1.30
2018-04-13T12:55:39.702Z,1.83
2018-04-13T12:58:09.348Z,1.40
2018-04-13T13:00:38.303Z,1.60
2018-04-13T13:03:07.194Z,1.23
2018-04-13T13:05:36.146Z,1.20
2018-04-13T13:08:04.995Z,1.00
2018-04-13T13:10:33.918Z,1.43
2018-04-13T13:13:02.796Z,1.20
2018-04-13T13:15:32.520Z,1.10
2018-04-13T13:18:01.419Z,1.40
2018-04-13T13:20:31.172Z,1.20
2018-04-13T13:23:00.028Z,1.37
2018-04-13T13:25:28.979Z,1.40
2018-04-13T13:27:57.845Z,1.37
2018-04-13T13:30:27.560Z,1.40
2018-04-13T13:32:56.444Z,1.30
2018-04-13T13:35:25.356Z,2.13
2018-04-13T13:37:54.216Z,3.53
2018-04-13T13:40:23.132Z,1.40
2018-04-13T13:42:52.017Z,1.10
2018-04-13T13:45:20.872Z,1.70
2018-04-13T13:47:49.812Z,1.00
2018-04-13T13:50:18.732Z,1.10
2018-04-13T13:52:48.406Z,1.00
2018-04-13T13:55:17.336Z,1.20
2018-04-13T13:57:46.993Z,1.10
2018-04-13T14:00:15.871Z,1.27
2018-04-13T14:02:44.765Z,0.90
2018-04-13T14:05:13.671Z,1.10
2018-04-13T14:07:42.537Z,1.30
2018-04-13T14:10:11.420Z,1.20
2018-04-13T14:12:40.370Z,1.47
2018-04-13T14:15:09.243Z,1.10
2018-04-13T14:17:38.151Z,1.00
2018-04-13T14:20:07.007Z,1.40
2018-04-13T14:22:35.911Z,1.20
2018-04-13T14:25:04.813Z,1.00
2018-04-13T14:27:33.720Z,1.40
2018-04-13T14:30:02.597Z,1.90
2018-04-13T14:32:31.586Z,1.57
2018-04-13T14:35:01.225Z,1.37
2018-04-13T14:37:30.860Z,1.40
2018-04-13T14:39:59.746Z,0.97
2018-04-13T14:42:28.621Z,1.30
2018-04-13T14:44:58.281Z,1.23
2018-04-13T14:47:27.169Z,9.77
2018-04-13T14:49:56.089Z,19.33
2018-04-13T14:52:24.978Z,8.37
2018-04-13T14:54:53.922Z,2.87
2018-04-13T14:57:22.769Z,7.50
2018-04-13T14:59:51.712Z,18.83
2018-04-13T15:02:20.633Z,4.30
2018-04-13T15:04:49.742Z,7.07
2018-04-13T15:07:18.664Z,8.37
2018-04-13T15:09:47.618Z,5.20
2018-04-13T15:12:16.516Z,6.03
2018-04-13T15:14:45.375Z,8.37
2018-04-13T15:17:14.295Z,12.13
2018-04-13T15:19:43.159Z,4.77
2018-04-13T15:22:12.057Z,1.33
2018-04-13T15:24:42.505Z,1.13
2018-04-13T15:27:12.157Z,1.30
2018-04-13T15:29:41.039Z,1.37
2018-04-13T15:32:10.027Z,1.10
2018-04-13T15:34:38.928Z,1.30
2018-04-13T15:37:07.803Z,1.17
2018-04-13T15:39:36.670Z,1.07
2018-04-13T15:42:06.373Z,1.43
2018-04-13T15:44:35.280Z,0.80
2018-04-13T15:47:04.902Z,0.93
2018-04-13T15:49:33.740Z,1.37
2018-04-13T15:52:02.622Z,1.10
2018-04-13T15:54:31.529Z,1.20
2018-04-13T15:57:00.408Z,1.30
2018-04-13T15:59:29.327Z,1.10
2018-04-13T16:01:58.214Z,0.90
2018-04-13T16:04:27.092Z,1.30
2018-04-13T16:06:55.977Z,1.80
2018-04-13T16:09:24.853Z,1.30
2018-04-13T16:11:53.711Z,3.47
2018-04-13T16:14:22.828Z,0.83
2018-04-13T16:16:51.728Z,1.07
2018-04-13T16:19:20.596Z,1.00
2018-04-13T16:21:49.455Z,1.27
2018-04-13T16:24:18.401Z,1.00
2018-04-13T16:26:47.265Z,0.97
2018-04-13T16:29:16.190Z,1.00
2018-04-13T16:31:45.126Z,1.03
2018-04-13T16:34:14.023Z,1.17
2018-04-13T16:36:42.908Z,1.10
2018-04-13T16:39:11.852Z,1.30
2018-04-13T16:41:40.761Z,0.93
2018-04-13T16:44:09.649Z,1.23
2018-04-13T16:46:38.520Z,3.43
2018-04-13T16:49:07.376Z,9.13
2018-04-13T16:51:36.296Z,6.70
2018-04-13T16:54:05.219Z,1.17
2018-04-13T16:56:34.881Z,1.50
2018-04-13T16:59:03.760Z,2.60
2018-04-13T17:01:32.752Z,1.47
2018-04-13T17:04:01.639Z,1.63
2018-04-13T17:06:30.505Z,1.30
2018-04-13T17:09:00.184Z,1.20
2018-04-13T17:11:29.137Z,1.40
2018-04-13T17:13:58.018Z,1.80
2018-04-13T17:16:26.870Z,1.00
2018-04-13T17:18:55.814Z,1.10
2018-04-13T17:21:24.701Z,5.40
2018-04-13T17:23:53.683Z,4.53
2018-04-13T17:26:22.681Z,5.30
2018-04-13T17:28:51.796Z,8.93
2018-04-13T17:31:21.513Z,5.53
2018-04-13T17:33:50.368Z,1.70
2018-04-13T17:36:19.237Z,1.30
2018-04-13T17:38:49.039Z,1.40
2018-04-13T17:41:17.931Z,1.33
2018-04-13T17:43:47.565Z,1.23
2018-04-13T17:46:16.564Z,3.63
2018-04-13T17:48:45.441Z,1.63
2018-04-13T17:51:14.297Z,1.10
2018-04-13T17:53:43.165Z,1.00
2018-04-13T17:56:12.096Z,1.03
2018-04-13T17:58:41.737Z,1.33
2018-04-13T18:01:10.600Z,1.10
2018-04-13T18:03:39.459Z,1.30
2018-04-13T18:06:08.367Z,1.40
2018-04-13T18:08:37.250Z,1.10
2018-04-13T18:11:06.141Z,1.60
2018-04-13T18:13:35.033Z,1.30
2018-04-13T18:16:03.941Z,1.20
2018-04-13T18:18:33.659Z,1.20
2018-04-13T18:21:03.333Z,1.27
2018-04-13T18:23:32.265Z,1.30
2018-04-13T18:26:01.126Z,1.50
2018-04-13T18:28:30.019Z,1.20
2018-04-13T18:30:59.668Z,1.43
2018-04-13T18:33:28.622Z,1.27
2018-04-13T18:35:58.268Z,1.10
2018-04-13T18:38:27.189Z,1.60
2018-04-13T18:40:56.111Z,1.20
2018-04-13T18:43:24.996Z,1.37
2018-04-13T18:45:53.853Z,1.67
2018-04-13T18:48:22.708Z,1.80
2018-04-13T18:50:52.346Z,2.83
2018-04-13T18:53:21.201Z,2.40
2018-04-13T18:55:50.172Z,3.83
2018-04-13T18:58:20.012Z,1.27
2018-04-13T19:00:48.886Z,1.20
2018-04-13T19:03:17.829Z,1.20
2018-04-13T19:05:46.749Z,1.40
2018-04-13T19:08:15.605Z,1.40
2018-04-13T19:10:44.536Z,1.40
2018-04-13T19:13:14.241Z,1.20
2018-04-13T19:15:43.248Z,1.80
2018-04-13T19:18:12.309Z,1.80
2018-04-13T19:20:41.255Z,4.73
2018-04-13T19:23:10.135Z,7.10
2018-04-13T19:25:39.065Z,4.77
2018-04-13T19:28:08.078Z,2.43
2018-04-13T19:30:37.000Z,2.67
2018-04-13T19:33:06.676Z,2.10
2018-04-13T19:35:36.237Z,1.83
2018-04-13T19:38:05.259Z,1.50
2018-04-13T19:40:34.148Z,1.90
2018-04-13T19:43:03.017Z,1.90
2018-04-13T19:45:32.018Z,2.53
2018-04-13T19:48:01.592Z,1.40
2018-04-13T19:50:31.276Z,1.43
2018-04-13T19:53:00.173Z,1.17
2018-04-13T19:55:29.076Z,1.33
2018-04-13T19:57:58.785Z,1.40
2018-04-13T20:00:27.608Z,1.10
2018-04-13T20:02:56.526Z,2.43
2018-04-13T20:05:25.441Z,1.10
2018-04-13T20:07:54.344Z,1.07
2018-04-13T20:10:23.224Z,3.90
2018-04-13T20:12:52.939Z,3.10
2018-04-13T20:15:25.720Z,1.53
2018-04-13T20:17:54.710Z,6.63
2018-04-13T20:20:23.599Z,2.50
2018-04-13T20:22:52.476Z,1.03
2018-04-13T20:25:21.360Z,1.50
2018-04-13T20:27:50.654Z,1.30
2018-04-13T20:30:20.323Z,1.53
2018-04-13T20:32:49.245Z,1.10
2018-04-13T20:35:18.120Z,1.77
2018-04-13T20:37:47.004Z,4.30
2018-04-13T20:40:15.966Z,1.40
2018-04-13T20:42:44.893Z,1.37
2018-04-13T20:45:13.779Z,1.10
2018-04-13T20:47:42.661Z,1.40
2018-04-13T20:50:11.572Z,1.13
2018-04-13T20:52:40.454Z,1.20
2018-04-13T20:55:09.355Z,0.80
2018-04-13T20:57:38.238Z,1.13
2018-04-13T21:00:07.137Z,1.23
2018-04-13T21:02:36.372Z,1.40
2018-04-13T21:05:05.264Z,1.10
2018-04-13T21:07:34.710Z,1.20
2018-04-13T21:10:03.672Z,1.20
2018-04-13T21:12:32.565Z,1.20
2018-04-13T21:15:02.212Z,1.20
2018-04-13T21:17:31.072Z,1.30
2018-04-13T21:19:59.994Z,0.90
2018-04-13T21:22:28.848Z,1.07
2018-04-13T21:24:58.483Z,0.90
2018-04-13T21:27:27.411Z,1.40
2018-04-13T21:29:56.381Z,1.13
2018-04-13T21:32:25.278Z,0.90
2018-04-13T21:34:54.141Z,0.70
2018-04-13T21:37:23.023Z,0.80
2018-04-13T21:39:51.943Z,0.60
2018-04-13T21:42:20.883Z,0.93
2018-04-13T21:44:49.741Z,0.60
2018-04-13T21:47:18.672Z,0.60
2018-04-13T21:49:48.310Z,1.10
2018-04-13T21:52:17.231Z,27.37
2018-04-13T21:54:46.108Z,8.70
2018-04-13T21:57:15.006Z,3.07
2018-04-13T21:59:44.104Z,3.67
2018-04-13T22:02:12.970Z,1.77
2018-04-13T22:04:41.868Z,2.20
2018-04-13T22:07:10.732Z,0.80
2018-04-13T22:09:39.676Z,0.80
2018-04-13T22:12:26.615Z,0.50
2018-04-13T22:14:56.398Z,0.70
2018-04-13T22:17:25.274Z,1.00
2018-04-13T22:19:54.125Z,0.90
2018-04-13T22:22:23.027Z,1.03
2018-04-13T22:24:51.912Z,2.50
2018-04-13T22:27:20.765Z,0.93
2018-04-13T22:29:49.678Z,0.80
2018-04-13T22:32:19.314Z,0.47
2018-04-13T22:34:48.191Z,4.50
2018-04-13T22:37:17.058Z,2.00
2018-04-13T22:39:45.941Z,1.50
2018-04-13T22:42:14.914Z,0.70
2018-04-13T22:44:43.828Z,1.10
2018-04-13T22:47:12.696Z,0.70
2018-04-13T22:49:41.564Z,0.70
2018-04-13T22:52:10.471Z,0.50
2018-04-13T22:54:39.328Z,0.77
2018-04-13T22:57:08.215Z,0.70
2018-04-13T22:59:37.104Z,0.80
2018-04-13T23:02:06.354Z,0.70
2018-04-13T23:04:35.232Z,0.67
2018-04-13T23:07:04.126Z,0.73
2018-04-13T23:09:33.088Z,0.60
2018-04-13T23:12:01.944Z,0.90
2018-04-13T23:14:31.649Z,0.93
2018-04-13T23:17:01.279Z,0.60
2018-04-13T23:19:30.166Z,0.80
2018-04-13T23:21:59.051Z,0.80
2018-04-13T23:24:28.785Z,0.50
2018-04-13T23:26:57.975Z,0.70
2018-04-13T23:29:26.871Z,0.70
2018-04-13T23:31:55.779Z,0.50
2018-04-13T23:34:24.668Z,1.00
2018-04-13T23:36:53.596Z,0.80
2018-04-13T23:39:22.595Z,2.63
2018-04-13T23:41:52.219Z,4.67
2018-04-13T23:44:21.137Z,2.00
2018-04-13T23:46:50.040Z,1.43
2018-04-13T23:49:18.900Z,1.57
2018-04-13T23:51:47.780Z,1.07
2018-04-13T23:54:16.644Z,1.00
2018-04-13T23:56:45.495Z,0.90
2018-04-13T23:59:14.480Z,0.90
